Time,TemperatureF,DewpointF,PressureIn,WindDirection,WindDirectionDegrees,WindSpeedMPH,WindSpeedGustMPH,Humidity,HourlyPrecipIn,Conditions,Clouds,dailyrainin,SoftwareType,DateUTC
2013-08-06 00:07:00,77.7,71.0,30.01,NE,38,4.0,12.0,81,0.00,,,0.00,weatherlink.com 1.10,2013-08-06 10:07:00,
2013-08-06 00:25:00,77.5,71.0,30.00,ENE,78,3.0,6.0,80,0.00,,,0.00,weatherlink.com 1.10,2013-08-06 10:25:00,
2013-08-06 00:43:00,77.6,70.0,30.00,NE,56,1.0,8.0,78,0.00,,,0.00,weatherlink.com 1.10,2013-08-06 10:43:00,
2013-08-06 01:01:00,77.6,71.0,29.99,East,82,0.0,5.0,81,0.00,,,0.00,weatherlink.com 1.10,2013-08-06 11:01:00,
2013-08-06 01:19:00,77.5,71.0,29.98,East,88,6.0,9.0,81,0.00,,,0.00,weatherlink.com 1.10,2013-08-06 11:19:00,
2013-08-06 01:37:00,76.3,70.0,29.98,NE,46,3.0,8.0,82,0.02,,,0.02,weatherlink.com 1.10,2013-08-06 11:37:00,
2013-08-06 01:55:00,75.5,70.0,29.98,ESE,109,0.0,7.0,83,0.04,,,0.04,weatherlink.com 1.10,2013-08-06 11:55:00,
2013-08-06 02:13:00,75.7,69.0,29.98,SSE,161,0.0,5.0,81,0.04,,,0.04,weatherlink.com 1.10,2013-08-06 12:13:00,
2013-08-06 02:32:00,76.0,70.0,29.97,ENE,67,2.0,6.0,83,0.03,,,0.04,weatherlink.com 1.10,2013-08-06 12:32:00,
2013-08-06 02:50:00,76.5,71.0,29.97,East,91,3.0,10.0,84,0.00,,,0.04,weatherlink.com 1.10,2013-08-06 12:50:00,
2013-08-06 03:08:00,76.5,71.0,29.97,ESE,111,0.0,7.0,83,0.00,,,0.04,weatherlink.com 1.10,2013-08-06 13:08:00,
2013-08-06 03:26:00,76.3,71.0,29.97,NNE,17,0.0,4.0,83,0.00,,,0.04,weatherlink.com 1.10,2013-08-06 13:26:00,
2013-08-06 03:44:00,76.2,70.0,29.97,NE,55,0.0,11.0,81,0.00,,,0.04,weatherlink.com 1.10,2013-08-06 13:44:00,
2013-08-06 04:02:00,75.9,70.0,29.97,SE,129,0.0,7.0,81,0.00,,,0.04,weatherlink.com 1.10,2013-08-06 14:02:00,
2013-08-06 04:20:00,75.8,70.0,29.97,East,85,0.0,7.0,81,0.00,,,0.04,weatherlink.com 1.10,2013-08-06 14:20:00,
2013-08-06 04:38:00,75.8,70.0,29.97,NE,53,0.0,5.0,81,0.00,,,0.04,weatherlink.com 1.10,2013-08-06 14:38:00,
2013-08-06 04:56:00,75.9,70.0,29.97,NE,54,3.0,6.0,81,0.00,,,0.04,weatherlink.com 1.10,2013-08-06 14:56:00,
2013-08-06 05:14:00,76.2,70.0,29.97,NNE,31,0.0,8.0,82,0.00,,,0.04,weatherlink.com 1.10,2013-08-06 15:14:00,
2013-08-06 05:33:00,76.1,70.0,29.97,East,87,1.0,6.0,81,0.00,,,0.04,weatherlink.com 1.10,2013-08-06 15:33:00,
2013-08-06 05:51:00,75.9,69.0,29.98,East,93,0.0,3.0,80,0.00,,,0.04,weatherlink.com 1.10,2013-08-06 15:51:00,
2013-08-06 06:09:00,75.9,70.0,29.98,SE,140,0.0,4.0,81,0.00,,,0.04,weatherlink.com 1.10,2013-08-06 16:09:00,
2013-08-06 06:27:00,76.2,70.0,29.99,NE,47,0.0,8.0,80,0.00,,,0.04,weatherlink.com 1.10,2013-08-06 16:27:00,
2013-08-06 06:46:00,76.7,70.0,29.99,NE,54,0.0,9.0,81,0.00,,,0.04,weatherlink.com 1.10,2013-08-06 16:46:00,
2013-08-06 07:04:00,78.1,71.0,30.00,SE,128,2.0,8.0,78,0.00,,,0.04,weatherlink.com 1.10,2013-08-06 17:04:00,
2013-08-06 07:23:00,78.7,70.0,30.00,ESE,123,7.0,10.0,76,0.00,,,0.04,weatherlink.com 1.10,2013-08-06 17:23:00,
2013-08-06 07:41:00,78.4,71.0,30.00,East,84,2.0,6.0,78,0.00,,,0.04,weatherlink.com 1.10,2013-08-06 17:41:00,
2013-08-06 07:59:00,79.8,71.0,30.01,ENE,76,4.0,9.0,75,0.00,,,0.04,weatherlink.com 1.10,2013-08-06 17:59:00,
2013-08-06 08:36:00,81.1,71.0,30.01,East,84,0.0,8.0,72,0.00,,,0.04,weatherlink.com 1.10,2013-08-06 18:36:00,
2013-08-06 08:54:00,80.9,72.0,30.02,NE,38,0.0,7.0,74,0.00,,,0.04,weatherlink.com 1.10,2013-08-06 18:54:00,
2013-08-06 09:15:00,81.9,71.0,30.02,SE,133,5.0,9.0,70,0.00,,,0.04,weatherlink.com 1.10,2013-08-06 19:15:00,
2013-08-06 09:33:00,82.3,71.0,30.02,NE,37,7.0,11.0,69,0.00,,,0.04,weatherlink.com 1.10,2013-08-06 19:33:00,
2013-08-06 09:52:00,82.5,71.0,30.02,SE,140,4.0,9.0,69,0.00,,,0.04,weatherlink.com 1.10,2013-08-06 19:52:00,
2013-08-06 10:10:00,82.5,71.0,30.02,East,88,0.0,10.0,69,0.00,,,0.04,weatherlink.com 1.10,2013-08-06 20:10:00,
2013-08-06 10:28:00,82.8,72.0,30.02,NE,34,3.0,9.0,70,0.00,,,0.04,weatherlink.com 1.10,2013-08-06 20:28:00,
2013-08-06 11:09:00,84.2,72.0,30.02,ENE,71,0.0,8.0,67,0.00,,,0.04,weatherlink.com 1.10,2013-08-06 21:09:00,
2013-08-06 11:27:00,83.4,73.0,30.01,SE,142,0.0,11.0,70,0.00,,,0.04,weatherlink.com 1.10,2013-08-06 21:27:00,
2013-08-06 11:45:00,84.4,73.0,30.01,East,86,5.0,10.0,68,0.00,,,0.04,weatherlink.com 1.10,2013-08-06 21:45:00,
2013-08-06 12:06:00,84.5,72.0,30.01,ENE,62,3.0,10.0,66,0.00,,,0.04,weatherlink.com 1.10,2013-08-06 22:06:00,
2013-08-06 12:24:00,83.9,72.0,30.00,North,5,3.0,9.0,68,0.00,,,0.04,weatherlink.com 1.10,2013-08-06 22:24:00,
2013-08-06 12:42:00,82.9,72.0,30.00,NNE,30,5.0,12.0,69,0.00,,,0.04,weatherlink.com 1.10,2013-08-06 22:42:00,
2013-08-06 13:04:00,82.9,72.0,29.99,North,9,9.0,10.0,69,0.00,,,0.04,weatherlink.com 1.10,2013-08-06 23:04:00,
2013-08-06 13:22:00,82.8,71.0,29.99,NNE,15,4.0,10.0,68,0.00,,,0.04,weatherlink.com 1.10,2013-08-06 23:22:00,
2013-08-06 13:42:00,82.9,73.0,29.98,NE,56,5.0,7.0,71,0.00,,,0.04,weatherlink.com 1.10,2013-08-06 23:42:00,
2013-08-06 14:00:00,83.5,73.0,29.98,ENE,65,0.0,11.0,70,0.00,,,0.04,weatherlink.com 1.10,2013-08-07 00:00:00,
2013-08-06 14:18:00,83.2,72.0,29.98,North,5,2.0,9.0,69,0.00,,,0.04,weatherlink.com 1.10,2013-08-07 00:18:00,
2013-08-06 14:36:00,82.0,72.0,29.98,North,5,4.0,10.0,71,0.00,,,0.04,weatherlink.com 1.10,2013-08-07 00:36:00,
2013-08-06 14:55:00,83.2,72.0,29.97,North,350,6.0,10.0,68,0.00,,,0.04,weatherlink.com 1.10,2013-08-07 00:55:00,
2013-08-06 15:12:00,83.6,72.0,29.97,ENE,63,3.0,13.0,68,0.00,,,0.04,weatherlink.com 1.10,2013-08-07 01:12:00,
2013-08-06 15:31:00,83.9,72.0,29.97,NNE,27,6.0,12.0,68,0.00,,,0.04,weatherlink.com 1.10,2013-08-07 01:31:00,
2013-08-06 15:50:00,83.7,72.0,29.97,East,90,2.0,11.0,67,0.00,,,0.04,weatherlink.com 1.10,2013-08-07 01:50:00,
2013-08-06 16:07:00,82.7,71.0,29.97,NNE,15,7.0,11.0,69,0.00,,,0.04,weatherlink.com 1.10,2013-08-07 02:07:00,
2013-08-06 16:26:00,82.9,71.0,29.97,NNW,342,3.0,9.0,68,0.00,,,0.04,weatherlink.com 1.10,2013-08-07 02:26:00,
2013-08-06 16:44:00,83.2,72.0,29.96,ENE,62,3.0,9.0,68,0.00,,,0.04,weatherlink.com 1.10,2013-08-07 02:44:00,
2013-08-06 17:03:00,82.5,70.0,29.96,NNE,32,5.0,9.0,67,0.00,,,0.04,weatherlink.com 1.10,2013-08-07 03:03:00,
2013-08-06 17:21:00,82.0,72.0,29.96,North,5,6.0,9.0,71,0.00,,,0.04,weatherlink.com 1.10,2013-08-07 03:21:00,
2013-08-06 17:39:00,81.2,71.0,29.97,ESE,116,5.0,12.0,71,0.00,,,0.04,weatherlink.com 1.10,2013-08-07 03:39:00,
2013-08-06 17:57:00,80.6,71.0,29.98,ENE,76,4.0,8.0,72,0.00,,,0.04,weatherlink.com 1.10,2013-08-07 03:57:00,
2013-08-06 18:15:00,80.2,71.0,29.98,NE,54,4.0,10.0,73,0.00,,,0.04,weatherlink.com 1.10,2013-08-07 04:15:00,
2013-08-06 18:33:00,79.2,70.0,29.98,North,5,6.0,7.0,74,0.00,,,0.04,weatherlink.com 1.10,2013-08-07 04:33:00,
2013-08-06 18:51:00,78.5,70.0,29.99,ENE,65,0.0,8.0,75,0.00,,,0.04,weatherlink.com 1.10,2013-08-07 04:51:00,
2013-08-06 19:09:00,78.4,70.0,30.00,ESE,123,2.0,5.0,76,0.00,,,0.04,weatherlink.com 1.10,2013-08-07 05:09:00,
2013-08-06 19:28:00,77.7,70.0,30.00,NE,47,0.0,3.0,76,0.00,,,0.04,weatherlink.com 1.10,2013-08-07 05:28:00,
2013-08-06 19:46:00,77.9,70.0,30.01,SE,139,0.0,5.0,78,0.00,,,0.04,weatherlink.com 1.10,2013-08-07 05:46:00,
2013-08-06 20:04:00,77.9,70.0,30.01,NE,51,0.0,5.0,78,0.00,,,0.04,weatherlink.com 1.10,2013-08-07 06:04:00,
2013-08-06 20:22:00,77.7,71.0,30.02,NNW,340,4.0,6.0,79,0.00,,,0.04,weatherlink.com 1.10,2013-08-07 06:22:00,
2013-08-06 20:40:00,77.5,70.0,30.02,NNE,26,0.0,5.0,78,0.00,,,0.04,weatherlink.com 1.10,2013-08-07 06:40:00,
2013-08-06 20:59:00,77.3,70.0,30.02,NE,36,0.0,6.0,77,0.00,,,0.04,weatherlink.com 1.10,2013-08-07 06:59:00,
2013-08-06 21:17:00,77.1,70.0,30.03,East,99,0.0,4.0,78,0.00,,,0.04,weatherlink.com 1.10,2013-08-07 07:17:00,
2013-08-06 21:35:00,77.3,70.0,30.03,East,92,0.0,7.0,78,0.00,,,0.04,weatherlink.com 1.10,2013-08-07 07:35:00,
2013-08-06 21:54:00,77.2,70.0,30.03,ENE,57,0.0,6.0,79,0.00,,,0.04,weatherlink.com 1.10,2013-08-07 07:54:00,
2013-08-06 22:12:00,76.9,70.0,30.03,ESE,109,3.0,6.0,79,0.00,,,0.04,weatherlink.com 1.10,2013-08-07 08:12:00,
2013-08-06 22:30:00,76.7,70.0,30.03,ENE,78,1.0,5.0,79,0.00,,,0.04,weatherlink.com 1.10,2013-08-07 08:30:00,
2013-08-06 22:49:00,76.6,70.0,30.03,ENE,66,0.0,4.0,79,0.00,,,0.04,weatherlink.com 1.10,2013-08-07 08:49:00,
2013-08-06 23:07:00,76.6,70.0,30.03,ENE,72,4.0,6.0,80,0.00,,,0.04,weatherlink.com 1.10,2013-08-07 09:07:00,
2013-08-06 23:25:00,76.6,70.0,30.03,East,82,0.0,3.0,80,0.00,,,0.04,weatherlink.com 1.10,2013-08-07 09:25:00,
2013-08-06 23:43:00,76.4,70.0,30.02,SE,133,0.0,4.0,81,0.00,,,0.04,weatherlink.com 1.10,2013-08-07 09:43:00,